createdAt,value
2016-08-05T00:00:55.948Z,0
2016-08-05T00:01:56.033Z,0
2016-08-05T00:02:56.045Z,0
2016-08-05T00:03:56.046Z,0
2016-08-05T00:04:56.705Z,0
2016-08-05T00:05:56.116Z,0
2016-08-05T00:06:56.649Z,0
2016-08-05T00:07:56.020Z,0
2016-08-05T00:08:56.043Z,0
2016-08-05T00:09:55.986Z,0
2016-08-05T00:10:56.495Z,0
2016-08-05T00:11:56.123Z,0
2016-08-05T00:12:56.025Z,0
2016-08-05T00:13:56.014Z,0
2016-08-05T00:14:56.009Z,0
2016-08-05T00:15:56.109Z,0
2016-08-05T00:16:56.030Z,0
2016-08-05T00:17:56.085Z,0
2016-08-05T00:18:56.129Z,0
2016-08-05T00:19:55.820Z,0
2016-08-05T00:20:56.143Z,0
2016-08-05T00:21:56.056Z,0
2016-08-05T00:22:56.110Z,0
2016-08-05T00:23:56.059Z,0
2016-08-05T00:24:56.037Z,0
2016-08-05T00:25:56.033Z,0
2016-08-05T00:26:56.052Z,0
2016-08-05T00:27:56.050Z,0
2016-08-05T00:28:56.051Z,0
2016-08-05T00:29:56.014Z,0
2016-08-05T00:30:56.053Z,0
2016-08-05T00:31:56.118Z,0
2016-08-05T00:32:56.077Z,0
2016-08-05T00:33:56.044Z,0
2016-08-05T00:34:56.030Z,0
2016-08-05T00:35:56.037Z,0
2016-08-05T00:36:56.109Z,0
2016-08-05T00:37:56.066Z,0
2016-08-05T00:38:56.017Z,0
2016-08-05T00:39:56.090Z,0
2016-08-05T00:40:56.061Z,0
2016-08-05T00:41:56.029Z,0
2016-08-05T00:42:56.107Z,0
2016-08-05T00:43:56.080Z,0
2016-08-05T00:44:56.093Z,0
2016-08-05T00:45:56.076Z,0
2016-08-05T00:46:56.064Z,0
2016-08-05T00:47:56.070Z,0
2016-08-05T00:48:56.053Z,0
2016-08-05T00:49:56.082Z,0
2016-08-05T00:50:56.045Z,0
2016-08-05T00:51:55.991Z,0
2016-08-05T00:52:56.017Z,0
2016-08-05T00:53:56.065Z,0
2016-08-05T00:54:56.018Z,0
2016-08-05T00:55:56.030Z,0
2016-08-05T00:56:56.016Z,0
2016-08-05T00:57:56.024Z,0
2016-08-05T00:58:56.019Z,0
2016-08-05T00:59:56.667Z,0
2016-08-05T01:00:56.047Z,0
2016-08-05T01:01:56.045Z,0
2016-08-05T01:02:56.047Z,0
2016-08-05T01:03:56.197Z,0
2016-08-05T01:04:57.071Z,0
2016-08-05T01:05:56.046Z,0
2016-08-05T01:06:56.122Z,0
2016-08-05T01:07:56.070Z,0
2016-08-05T01:08:56.048Z,0
2016-08-05T01:09:56.050Z,0
2016-08-05T01:10:56.018Z,0
2016-08-05T01:11:56.020Z,0
2016-08-05T01:12:56.017Z,0
2016-08-05T01:13:56.016Z,0
2016-08-05T01:14:56.094Z,0
2016-08-05T01:15:56.078Z,0
2016-08-05T01:16:56.065Z,0
2016-08-05T01:17:56.093Z,0
2016-08-05T01:18:56.036Z,0
2016-08-05T01:19:56.047Z,0
2016-08-05T01:20:56.082Z,0
2016-08-05T01:21:56.075Z,0
2016-08-05T01:22:56.045Z,0
2016-08-05T01:23:56.101Z,0
2016-08-05T01:24:56.117Z,0
2016-08-05T01:25:57.068Z,0
2016-08-05T01:26:56.194Z,0
2016-08-05T01:27:56.143Z,0
2016-08-05T01:28:56.087Z,0
2016-08-05T01:29:56.154Z,0
2016-08-05T01:30:56.167Z,0
2016-08-05T01:31:56.087Z,0
2016-08-05T01:32:56.114Z,0
2016-08-05T01:33:56.110Z,0
2016-08-05T01:34:56.112Z,0
2016-08-05T01:35:56.023Z,0
2016-08-05T01:36:56.029Z,0
2016-08-05T01:37:56.041Z,0
2016-08-05T01:38:56.019Z,0
2016-08-05T01:39:56.079Z,0
2016-08-05T01:40:56.128Z,0
2016-08-05T01:41:56.044Z,0
2016-08-05T01:42:56.014Z,0
2016-08-05T01:43:56.066Z,0
2016-08-05T01:44:56.081Z,0
2016-08-05T01:45:56.049Z,0
2016-08-05T01:46:56.033Z,0
2016-08-05T01:47:56.034Z,0
2016-08-05T01:48:56.081Z,0
2016-08-05T01:49:56.130Z,0
2016-08-05T01:50:56.080Z,0
2016-08-05T01:51:56.023Z,0
2016-08-05T01:52:56.051Z,0
2016-08-05T01:53:56.090Z,0
2016-08-05T01:54:56.079Z,0
2016-08-05T01:55:56.051Z,0
2016-08-05T01:56:56.083Z,0
2016-08-05T01:57:56.051Z,0
2016-08-05T01:58:56.771Z,0
2016-08-05T01:59:56.081Z,0
2016-08-05T02:00:56.081Z,0
2016-08-05T02:01:56.088Z,0
2016-08-05T02:02:56.061Z,0
2016-08-05T02:03:56.110Z,0
2016-08-05T02:04:56.051Z,0
2016-08-05T02:05:56.057Z,0
2016-08-05T02:06:56.744Z,0
2016-08-05T02:07:56.033Z,0
2016-08-05T02:08:56.111Z,0
2016-08-05T02:09:56.083Z,0
2016-08-05T02:10:56.084Z,0
2016-08-05T02:11:56.076Z,0
2016-08-05T02:12:56.082Z,0
2016-08-05T02:13:56.111Z,0
2016-08-05T02:14:56.087Z,0
2016-08-05T02:15:56.110Z,0
2016-08-05T02:16:56.054Z,0
2016-08-05T02:17:56.047Z,0
2016-08-05T02:18:56.743Z,0
2016-08-05T02:19:56.092Z,0
2016-08-05T02:20:56.112Z,0
2016-08-05T02:21:56.069Z,0
2016-08-05T02:22:56.077Z,0
2016-08-05T02:23:56.082Z,0
2016-08-05T02:24:56.062Z,0
2016-08-05T02:25:56.053Z,0
2016-08-05T02:26:56.083Z,0
2016-08-05T02:27:56.143Z,0
2016-08-05T02:28:56.076Z,0
2016-08-05T02:29:56.135Z,0
2016-08-05T02:30:56.086Z,0
2016-08-05T02:31:56.109Z,0
2016-08-05T02:32:56.135Z,0
2016-08-05T02:33:56.091Z,0
2016-08-05T02:34:56.079Z,0
2016-08-05T02:35:56.113Z,0
2016-08-05T02:36:56.045Z,0
2016-08-05T02:37:56.061Z,0
2016-08-05T02:38:56.076Z,0
2016-08-05T02:39:56.104Z,0
2016-08-05T02:40:56.098Z,0
2016-08-05T02:41:56.078Z,0
2016-08-05T02:42:56.132Z,0
2016-08-05T02:43:56.113Z,0
2016-08-05T02:44:56.156Z,0
2016-08-05T02:45:56.113Z,0
2016-08-05T02:46:56.100Z,0
2016-08-05T02:47:56.089Z,0
2016-08-05T02:48:56.142Z,0
2016-08-05T02:49:56.135Z,0
2016-08-05T02:50:56.087Z,0
2016-08-05T02:51:56.150Z,0
2016-08-05T02:52:56.146Z,0
2016-08-05T02:53:56.085Z,0
2016-08-05T02:54:56.090Z,0
2016-08-05T02:55:56.139Z,0
2016-08-05T02:56:56.128Z,0
2016-08-05T02:57:56.124Z,0
2016-08-05T02:58:56.115Z,0
2016-08-05T02:59:56.138Z,0
2016-08-05T03:00:56.114Z,0
2016-08-05T03:01:56.120Z,0
2016-08-05T03:02:56.096Z,0
2016-08-05T03:03:56.115Z,0
2016-08-05T03:04:56.144Z,0
2016-08-05T03:05:56.107Z,0
2016-08-05T03:06:56.123Z,0
2016-08-05T03:07:56.115Z,0
2016-08-05T03:08:56.113Z,0
2016-08-05T03:09:56.103Z,0
2016-08-05T03:10:56.110Z,0
2016-08-05T03:11:56.103Z,0
2016-08-05T03:12:56.124Z,0
2016-08-05T03:13:56.145Z,0
2016-08-05T03:14:56.137Z,0
2016-08-05T03:15:56.235Z,0
2016-08-05T03:16:56.138Z,0
2016-08-05T03:17:56.158Z,0
2016-08-05T03:18:56.139Z,0
2016-08-05T03:19:56.141Z,0
2016-08-05T03:20:56.145Z,0
2016-08-05T03:21:56.127Z,0
2016-08-05T03:22:56.091Z,0
2016-08-05T03:23:56.175Z,0
2016-08-05T03:24:56.138Z,0
2016-08-05T03:25:56.126Z,0
2016-08-05T03:26:56.181Z,0
2016-08-05T03:27:56.183Z,0
2016-08-05T03:28:56.178Z,0
2016-08-05T03:29:56.170Z,0
2016-08-05T03:30:56.248Z,0
2016-08-05T03:31:56.151Z,0
2016-08-05T03:32:56.163Z,0
2016-08-05T03:33:56.176Z,0
2016-08-05T03:34:56.176Z,0
2016-08-05T03:35:56.179Z,0
2016-08-05T03:36:56.189Z,0
2016-08-05T03:37:56.170Z,0
2016-08-05T03:38:56.207Z,0
2016-08-05T03:39:56.167Z,0
2016-08-05T03:40:56.197Z,0
2016-08-05T03:41:56.149Z,0
2016-08-05T03:42:56.183Z,0
2016-08-05T03:43:56.177Z,0
2016-08-05T03:44:56.138Z,0
2016-08-05T03:45:56.154Z,0
2016-08-05T03:46:56.128Z,0
2016-08-05T03:47:56.199Z,0
2016-08-05T03:48:56.211Z,0
2016-08-05T03:49:56.133Z,0
2016-08-05T03:50:56.156Z,0
2016-08-05T03:51:56.148Z,0
2016-08-05T03:52:57.014Z,0
2016-08-05T03:53:56.467Z,5
2016-08-05T03:54:56.424Z,5
2016-08-05T03:55:56.470Z,5
2016-08-05T03:56:56.499Z,5
2016-08-05T03:57:56.872Z,5
2016-08-05T03:58:56.391Z,5
2016-08-05T03:59:56.325Z,5
2016-08-05T04:00:56.740Z,5
2016-08-05T04:01:56.900Z,5
2016-08-05T04:02:56.798Z,10
2016-08-05T04:03:56.709Z,10
2016-08-05T04:04:56.587Z,10
2016-08-05T04:05:56.393Z,10
2016-08-05T04:06:56.422Z,10
2016-08-05T04:07:56.329Z,10
2016-08-05T04:08:56.436Z,15
2016-08-05T04:09:56.417Z,15
2016-08-05T04:10:56.180Z,15
2016-08-05T04:11:56.149Z,15
2016-08-05T04:12:56.336Z,15
2016-08-05T04:13:56.460Z,15
2016-08-05T04:14:56.432Z,20
2016-08-05T04:15:56.751Z,20
2016-08-05T04:16:56.610Z,20
2016-08-05T04:17:56.546Z,20
2016-08-05T04:18:57.027Z,20
2016-08-05T04:19:56.364Z,20
2016-08-05T04:20:56.365Z,20
2016-08-05T04:21:57.051Z,25
2016-08-05T04:22:56.454Z,25
2016-08-05T04:23:56.516Z,25
2016-08-05T04:24:56.301Z,25
2016-08-05T04:25:56.695Z,25
2016-08-05T04:26:56.480Z,30
2016-08-05T04:27:56.496Z,30
2016-08-05T04:28:56.666Z,35
2016-08-05T04:29:56.925Z,35
2016-08-05T04:30:56.437Z,40
2016-08-05T04:31:56.197Z,40
2016-08-05T04:32:56.209Z,35
2016-08-05T04:33:56.204Z,35
2016-08-05T04:34:56.176Z,30
2016-08-05T04:35:56.178Z,30
2016-08-05T04:36:56.200Z,30
2016-08-05T04:37:56.214Z,30
2016-08-05T04:38:56.171Z,35
2016-08-05T04:39:56.208Z,40
2016-08-05T04:40:55.940Z,45
2016-08-05T04:41:56.216Z,50
2016-08-05T04:42:56.267Z,60
2016-08-05T04:43:56.209Z,60
2016-08-05T04:44:56.179Z,65
2016-08-05T04:45:56.213Z,70
2016-08-05T04:46:56.188Z,70
2016-08-05T04:47:56.247Z,75
2016-08-05T04:48:56.240Z,85
2016-08-05T04:49:56.250Z,95
2016-08-05T04:50:56.188Z,95
2016-08-05T04:51:56.222Z,115
2016-08-05T04:52:56.196Z,100
2016-08-05T04:53:56.209Z,100
2016-08-05T04:54:56.230Z,100
2016-08-05T04:56:56.180Z,115
2016-08-05T04:57:56.222Z,115
2016-08-05T04:58:56.240Z,115
2016-08-05T04:59:56.301Z,130
2016-08-05T05:00:56.265Z,120
2016-08-05T05:01:56.311Z,120
2016-08-05T05:02:56.240Z,115
2016-08-05T05:03:56.211Z,105
2016-08-05T05:04:56.277Z,105
2016-08-05T05:05:56.241Z,105
2016-08-05T05:06:56.306Z,105
2016-08-05T05:07:56.277Z,115
2016-08-05T05:08:56.268Z,120
2016-08-05T05:09:56.311Z,115
2016-08-05T05:11:56.275Z,120
2016-08-05T05:12:56.217Z,115
2016-08-05T05:13:56.270Z,110
2016-08-05T05:14:56.239Z,105
2016-08-05T05:15:56.280Z,110
2016-08-05T05:16:56.269Z,115
2016-08-05T05:17:56.272Z,110
2016-08-05T05:18:56.336Z,110
2016-08-05T05:19:56.244Z,120
2016-08-05T05:20:56.298Z,140
2016-08-05T05:21:56.231Z,145
2016-08-05T05:22:56.269Z,150
2016-08-05T05:23:56.241Z,135
2016-08-05T05:24:56.309Z,95
2016-08-05T05:26:56.279Z,85
2016-08-05T05:27:56.300Z,70
2016-08-05T05:28:56.368Z,70
2016-08-05T05:29:56.273Z,50
2016-08-05T05:30:56.299Z,55
2016-08-05T05:31:56.276Z,50
2016-08-05T05:32:56.243Z,50
2016-08-05T05:33:56.271Z,55
2016-08-05T05:34:56.333Z,70
2016-08-05T05:35:56.242Z,70
2016-08-05T05:36:56.273Z,80
2016-08-05T05:37:56.262Z,60
2016-08-05T05:38:56.270Z,65
2016-08-05T05:39:56.242Z,85
2016-08-05T05:41:56.273Z,95
2016-08-05T05:42:56.234Z,95
2016-08-05T05:43:56.218Z,100
2016-08-05T05:44:56.306Z,70
2016-08-05T05:45:56.254Z,85
2016-08-05T05:46:56.278Z,145
2016-08-05T05:47:56.254Z,155
2016-08-05T05:48:56.254Z,155
2016-08-05T05:49:56.249Z,185
2016-08-05T05:50:56.238Z,175
2016-08-05T05:51:56.255Z,165
2016-08-05T05:52:56.307Z,190
2016-08-05T05:53:57.234Z,225
2016-08-05T05:54:56.274Z,290
2016-08-05T05:55:56.228Z,310
2016-08-05T05:56:56.306Z,270
2016-08-05T05:57:56.313Z,235
2016-08-05T05:58:56.286Z,225
2016-08-05T05:59:56.312Z,195
2016-08-05T06:00:56.361Z,180
2016-08-05T06:01:56.306Z,195
2016-08-05T06:02:56.314Z,180
2016-08-05T06:03:56.286Z,170
2016-08-05T06:04:56.327Z,110
2016-08-05T06:05:56.311Z,75
2016-08-05T06:06:56.273Z,80
2016-08-05T06:07:56.311Z,100
2016-08-05T06:08:56.278Z,90
2016-08-05T06:09:56.352Z,85
2016-08-05T06:10:56.261Z,110
2016-08-05T06:11:56.276Z,120
2016-08-05T06:12:56.268Z,160
2016-08-05T06:13:56.276Z,180
2016-08-05T06:14:56.233Z,200
2016-08-05T06:15:56.269Z,240
2016-08-05T06:16:56.275Z,235
2016-08-05T06:17:56.247Z,220
2016-08-05T06:18:56.246Z,265
2016-08-05T06:19:56.260Z,240
2016-08-05T06:20:56.256Z,265
2016-08-05T06:21:56.227Z,230
2016-08-05T06:22:56.271Z,255
2016-08-05T06:23:57.317Z,245
2016-08-05T06:24:56.336Z,265
2016-08-05T06:25:56.243Z,295
2016-08-05T06:26:56.337Z,235
2016-08-05T06:27:56.817Z,230
2016-08-05T06:28:56.319Z,225
2016-08-05T06:29:56.306Z,260
2016-08-05T06:30:56.334Z,275
2016-08-05T06:31:56.307Z,290
2016-08-05T06:32:56.334Z,280
2016-08-05T06:33:56.389Z,310
2016-08-05T06:34:56.290Z,315
2016-08-05T06:35:56.275Z,330
2016-08-05T06:36:56.307Z,310
2016-08-05T06:37:56.318Z,320
2016-08-05T06:38:56.373Z,335
2016-08-05T06:39:56.305Z,305
2016-08-05T06:40:56.301Z,300
2016-08-05T06:41:56.358Z,310
2016-08-05T06:42:56.289Z,325
2016-08-05T06:43:56.287Z,270
2016-08-05T06:44:56.372Z,255
2016-08-05T06:45:56.309Z,235
2016-08-05T06:46:56.379Z,195
2016-08-05T06:47:56.427Z,165
2016-08-05T06:48:56.378Z,210
2016-08-05T06:49:56.276Z,240
2016-08-05T06:50:56.284Z,330
2016-08-05T06:51:56.311Z,270
2016-08-05T06:52:56.301Z,270
2016-08-05T06:53:56.295Z,305
2016-08-05T06:54:56.312Z,260
2016-08-05T06:55:56.338Z,260
2016-08-05T06:56:56.347Z,245
2016-08-05T06:57:56.340Z,220
2016-08-05T06:58:56.345Z,190
2016-08-05T06:59:56.395Z,210
2016-08-05T07:00:56.352Z,270
2016-08-05T07:01:56.406Z,215
2016-08-05T07:02:56.369Z,150
2016-08-05T07:03:56.433Z,165
2016-08-05T07:04:56.444Z,190
2016-08-05T07:05:56.349Z,285
2016-08-05T07:06:56.459Z,365
2016-08-05T07:07:56.477Z,380
2016-08-05T07:08:56.439Z,325
2016-08-05T07:09:56.376Z,320
2016-08-05T07:10:56.426Z,275
2016-08-05T07:11:56.368Z,200
2016-08-05T07:12:56.370Z,150
2016-08-05T07:13:56.404Z,170
2016-08-05T07:14:56.406Z,210
2016-08-05T07:15:56.498Z,220
2016-08-05T07:16:56.503Z,265
2016-08-05T07:17:56.435Z,260
2016-08-05T07:18:56.375Z,280
2016-08-05T07:19:56.407Z,195
2016-08-05T07:20:56.429Z,190
2016-08-05T07:21:56.408Z,205
2016-08-05T07:22:56.489Z,195
2016-08-05T07:23:56.401Z,205
2016-08-05T07:24:56.406Z,225
2016-08-05T07:25:57.135Z,225
2016-08-05T07:26:56.551Z,215
2016-08-05T07:27:56.443Z,240
2016-08-05T07:28:56.368Z,265
2016-08-05T07:29:56.413Z,225
2016-08-05T07:30:56.430Z,190
2016-08-05T07:31:56.587Z,225
2016-08-05T07:32:56.491Z,255
2016-08-05T07:33:56.455Z,205
2016-08-05T07:34:56.405Z,245
2016-08-05T07:35:56.401Z,280
2016-08-05T07:36:56.429Z,215
2016-08-05T07:37:56.386Z,215
2016-08-05T07:38:56.433Z,260
2016-08-05T07:39:56.399Z,310
2016-08-05T07:40:56.378Z,320
2016-08-05T07:41:56.528Z,340
2016-08-05T07:42:56.420Z,455
2016-08-05T07:43:56.458Z,485
2016-08-05T07:44:56.441Z,450
2016-08-05T07:45:56.402Z,475
2016-08-05T07:46:56.347Z,425
2016-08-05T07:47:56.401Z,455
2016-08-05T07:48:56.433Z,465
2016-08-05T07:49:56.428Z,420
2016-08-05T07:50:56.390Z,370
2016-08-05T07:51:56.369Z,385
2016-08-05T07:52:56.401Z,395
2016-08-05T07:53:56.410Z,410
2016-08-05T07:54:56.374Z,480
2016-08-05T07:55:57.066Z,420
2016-08-05T07:56:56.421Z,330
2016-08-05T07:57:56.406Z,340
2016-08-05T07:58:56.445Z,370
2016-08-05T07:59:57.047Z,400
2016-08-05T08:00:56.396Z,375
2016-08-05T08:01:56.403Z,375
2016-08-05T08:02:56.345Z,340
2016-08-05T08:03:56.391Z,285
2016-08-05T08:04:56.406Z,300
2016-08-05T08:05:56.403Z,240
2016-08-05T08:06:56.409Z,285
2016-08-05T08:07:56.379Z,310
2016-08-05T08:08:56.376Z,340
2016-08-05T08:09:56.440Z,315
2016-08-05T08:10:56.441Z,320
2016-08-05T08:11:56.446Z,425
2016-08-05T08:12:56.413Z,365
2016-08-05T08:13:56.460Z,340
2016-08-05T08:14:56.433Z,285
2016-08-05T08:15:56.419Z,285
2016-08-05T08:16:56.433Z,210
2016-08-05T08:17:56.435Z,185
2016-08-05T08:19:00.003Z,230
2016-08-05T08:19:56.405Z,230
2016-08-05T08:20:56.404Z,250
2016-08-05T08:21:56.453Z,225
2016-08-05T08:22:56.437Z,210
2016-08-05T08:23:56.442Z,245
2016-08-05T08:24:56.495Z,245
2016-08-05T08:25:56.433Z,235
2016-08-05T08:26:56.411Z,205
2016-08-05T08:27:56.446Z,185
2016-08-05T08:28:56.446Z,180
2016-08-05T08:29:56.499Z,220
2016-08-05T08:30:56.487Z,265
2016-08-05T08:31:56.484Z,245
2016-08-05T08:32:56.405Z,265
2016-08-05T08:33:56.498Z,195
2016-08-05T08:34:56.429Z,200
2016-08-05T08:35:56.437Z,250
2016-08-05T08:36:56.444Z,245
2016-08-05T08:37:56.505Z,260
2016-08-05T08:39:30.088Z,190
2016-08-05T08:40:37.316Z,195
2016-08-05T08:41:59.279Z,220
2016-08-05T08:42:18.947Z,225
2016-08-05T08:43:19.208Z,215
2016-08-05T08:44:18.931Z,255
2016-08-05T08:45:18.966Z,250
2016-08-05T08:46:19.068Z,200
2016-08-05T08:47:18.979Z,245
2016-08-05T08:48:18.966Z,395
2016-08-05T08:49:18.935Z,440
2016-08-05T08:50:18.936Z,325
2016-08-05T08:51:18.945Z,325
2016-08-05T08:52:18.964Z,345
2016-08-05T08:53:19.742Z,370
2016-08-05T08:54:18.946Z,360
2016-08-05T08:55:18.947Z,310
2016-08-05T08:57:18.965Z,355
2016-08-05T08:58:18.933Z,420
2016-08-05T08:59:18.994Z,375
2016-08-05T09:00:18.960Z,330
2016-08-05T09:01:18.958Z,335
2016-08-05T09:02:18.967Z,445
2016-08-05T09:03:18.965Z,435
2016-08-05T09:04:18.971Z,370
2016-08-05T09:05:18.975Z,315
2016-08-05T09:06:18.919Z,410
2016-08-05T09:07:18.945Z,380
2016-08-05T09:08:18.988Z,370
2016-08-05T09:09:19.056Z,435
2016-08-05T09:10:19.080Z,450
2016-08-05T09:12:19.146Z,350
2016-08-05T09:13:19.050Z,390
2016-08-05T09:14:19.053Z,435
2016-08-05T09:15:19.257Z,445
2016-08-05T09:17:11.418Z,400
2016-08-05T09:18:17.528Z,445
2016-08-05T09:18:49.513Z,445
2016-08-05T09:20:01.196Z,400
2016-08-05T09:21:34.362Z,515
2016-08-05T09:22:59.758Z,430
2016-08-05T09:24:24.903Z,460
2016-08-05T09:25:05.828Z,435
2016-08-05T09:26:42.072Z,440
2016-08-05T09:27:59.099Z,370
2016-08-05T09:29:17.966Z,310
2016-08-05T09:30:17.800Z,270
2016-08-05T09:30:48.565Z,235
2016-08-05T09:31:52.853Z,205
2016-08-05T09:32:50.265Z,195
2016-08-05T09:33:53.609Z,230
2016-08-05T09:34:52.719Z,385
2016-08-05T09:35:41.378Z,400
2016-08-05T09:36:39.883Z,315
2016-08-05T09:37:40.004Z,335
2016-08-05T09:38:39.845Z,360
2016-08-05T09:39:39.851Z,415
2016-08-05T09:40:39.872Z,425
2016-08-05T09:41:39.695Z,385
2016-08-05T09:42:39.929Z,340
2016-08-05T09:43:39.842Z,285
2016-08-05T09:44:40.353Z,230
2016-08-05T09:45:39.866Z,210
2016-08-05T09:46:39.938Z,240
2016-08-05T09:47:39.845Z,310
2016-08-05T09:48:39.858Z,295
2016-08-05T09:49:39.852Z,245
2016-08-05T09:50:40.182Z,235
2016-08-05T09:51:39.984Z,255
2016-08-05T09:52:39.971Z,235
2016-08-05T09:53:40.025Z,260
2016-08-05T09:54:39.810Z,250
2016-08-05T09:55:40.214Z,240
2016-08-05T09:56:39.750Z,290
2016-08-05T09:57:39.931Z,370
2016-08-05T09:58:40.001Z,375
2016-08-05T09:59:40.066Z,400
2016-08-05T10:00:40.011Z,430
2016-08-05T10:01:40.052Z,430
2016-08-05T10:02:39.957Z,440
2016-08-05T10:03:40.058Z,445
2016-08-05T10:04:39.898Z,425
2016-08-05T10:05:40.025Z,390
2016-08-05T10:06:41.234Z,395
2016-08-05T10:07:39.939Z,425
2016-08-05T10:08:39.989Z,420
2016-08-05T10:09:39.878Z,405
2016-08-05T10:10:39.879Z,460
2016-08-05T10:11:40.334Z,390
2016-08-05T10:12:39.961Z,330
2016-08-05T10:13:39.954Z,315
2016-08-05T10:14:39.922Z,305
2016-08-05T10:15:39.847Z,305
2016-08-05T10:16:39.963Z,345
2016-08-05T10:17:39.939Z,380
2016-08-05T10:18:39.910Z,375
2016-08-05T10:19:40.008Z,350
2016-08-05T10:20:39.939Z,355
2016-08-05T10:21:39.946Z,405
2016-08-05T10:22:40.884Z,510
2016-08-05T10:23:40.003Z,475
2016-08-05T10:24:40.520Z,475
2016-08-05T10:25:40.019Z,455
2016-08-05T10:26:40.450Z,420
2016-08-05T10:27:40.148Z,345
2016-08-05T10:28:40.593Z,350
2016-08-05T10:29:39.968Z,425
2016-08-05T10:30:40.034Z,460
2016-08-05T10:31:39.952Z,440
2016-08-05T10:32:39.880Z,415
2016-08-05T10:33:39.969Z,405
2016-08-05T10:34:39.910Z,415
2016-08-05T10:35:40.006Z,395
2016-08-05T10:36:40.017Z,410
2016-08-05T10:37:40.034Z,375
2016-08-05T10:38:39.970Z,405
2016-08-05T10:39:40.358Z,385
2016-08-05T10:40:40.101Z,340
2016-08-05T10:42:39.889Z,265
2016-08-05T10:43:40.095Z,255
2016-08-05T10:44:40.759Z,240
2016-08-05T10:45:40.172Z,260
2016-08-05T10:46:40.789Z,305
2016-08-05T10:47:40.554Z,320
2016-08-05T10:48:42.245Z,310
2016-08-05T10:49:40.133Z,300
2016-08-05T10:50:39.949Z,250
2016-08-05T10:51:40.041Z,230
2016-08-05T10:52:39.977Z,220
2016-08-05T10:53:40.811Z,260
2016-08-05T10:54:40.240Z,310
2016-08-05T10:55:40.123Z,320
2016-08-05T10:56:40.411Z,285
2016-08-05T10:57:40.124Z,275
2016-08-05T10:58:40.004Z,275
2016-08-05T10:59:40.064Z,295
2016-08-05T11:00:40.071Z,315
2016-08-05T11:01:40.121Z,360
2016-08-05T11:02:40.128Z,385
2016-08-05T11:03:40.029Z,355
2016-08-05T11:04:40.348Z,335
2016-08-05T11:05:40.043Z,315
2016-08-05T11:06:39.943Z,325
2016-08-05T11:07:40.003Z,340
2016-08-05T11:08:39.945Z,345
2016-08-05T11:09:39.974Z,325
2016-08-05T11:10:39.951Z,355
2016-08-05T11:11:40.007Z,375
2016-08-05T11:12:40.003Z,325
2016-08-05T11:13:40.071Z,300
2016-08-05T11:14:39.984Z,260
2016-08-05T11:15:39.994Z,265
2016-08-05T11:16:40.023Z,290
2016-08-05T11:17:40.033Z,310
2016-08-05T11:18:39.975Z,270
2016-08-05T11:19:39.998Z,255
2016-08-05T11:20:39.951Z,290
2016-08-05T11:21:40.616Z,305
2016-08-05T11:22:39.980Z,295
2016-08-05T11:23:39.976Z,275
2016-08-05T11:24:39.940Z,250
2016-08-05T11:25:39.973Z,225
2016-08-05T11:26:40.029Z,210
2016-08-05T11:27:39.951Z,220
2016-08-05T11:28:40.969Z,220
2016-08-05T11:29:39.936Z,220
2016-08-05T11:30:40.056Z,180
2016-08-05T11:31:40.682Z,170
2016-08-05T11:32:40.005Z,190
2016-08-05T11:33:40.010Z,230
2016-08-05T11:34:39.996Z,250
2016-08-05T11:35:40.033Z,275
2016-08-05T11:36:39.995Z,250
2016-08-05T11:37:39.927Z,220
2016-08-05T11:38:39.977Z,195
2016-08-05T11:39:40.023Z,180
2016-08-05T11:40:40.340Z,220
2016-08-05T11:41:40.059Z,205
2016-08-05T11:42:39.958Z,205
2016-08-05T11:43:39.978Z,205
2016-08-05T11:44:40.099Z,195
2016-08-05T11:45:40.130Z,195
2016-08-05T11:46:40.111Z,195
2016-08-05T11:47:40.108Z,180
2016-08-05T11:48:40.059Z,190
2016-08-05T11:49:40.058Z,215
2016-08-05T11:50:40.038Z,225
2016-08-05T11:51:39.975Z,260
2016-08-05T11:52:40.015Z,315
2016-08-05T11:53:39.972Z,325
2016-08-05T11:54:39.979Z,360
2016-08-05T11:55:40.106Z,410
2016-08-05T11:56:39.974Z,375
2016-08-05T11:57:40.188Z,325
2016-08-05T11:58:40.080Z,285
2016-08-05T11:59:40.048Z,255
2016-08-05T12:00:39.976Z,270
2016-08-05T12:01:40.217Z,265
2016-08-05T12:02:40.006Z,285
2016-08-05T12:03:40.024Z,300
2016-08-05T12:04:40.005Z,290
2016-08-05T12:05:40.032Z,290
2016-08-05T12:06:39.979Z,290
2016-08-05T12:07:40.026Z,305
2016-08-05T12:08:40.034Z,320
2016-08-05T12:09:40.025Z,325
2016-08-05T12:10:40.133Z,345
2016-08-05T12:11:40.551Z,360
2016-08-05T12:12:40.282Z,350
2016-08-05T12:13:40.100Z,355
2016-08-05T12:14:40.013Z,360
2016-08-05T12:15:40.142Z,365
2016-08-05T12:16:40.224Z,385
2016-08-05T12:17:40.036Z,425
2016-08-05T12:18:40.033Z,440
2016-08-05T12:19:40.070Z,430
2016-08-05T12:20:40.100Z,360
2016-08-05T12:21:40.173Z,305
2016-08-05T12:22:40.063Z,270
2016-08-05T12:23:40.075Z,255
2016-08-05T12:24:40.006Z,260
2016-08-05T12:25:40.114Z,300
2016-08-05T12:26:40.016Z,315
2016-08-05T12:27:40.098Z,325
2016-08-05T12:28:40.074Z,360
2016-08-05T12:29:40.183Z,355
2016-08-05T12:30:40.024Z,345
2016-08-05T12:31:40.064Z,340
2016-08-05T12:32:40.065Z,345
2016-08-05T12:33:40.202Z,365
2016-08-05T12:34:40.034Z,360
2016-08-05T12:35:40.078Z,250
2016-08-05T12:36:40.100Z,155
2016-08-05T12:37:40.222Z,115
2016-08-05T12:38:40.046Z,105
2016-08-05T12:39:40.020Z,115
2016-08-05T12:40:40.071Z,130
2016-08-05T12:41:40.078Z,120
2016-08-05T12:42:40.127Z,135
2016-08-05T12:43:40.201Z,125
2016-08-05T12:44:40.011Z,120
2016-08-05T12:45:40.191Z,130
2016-08-05T12:46:40.081Z,145
2016-08-05T12:47:40.111Z,160
2016-08-05T12:48:40.066Z,170
2016-08-05T12:49:40.217Z,185
2016-08-05T12:50:40.039Z,200
2016-08-05T12:51:40.159Z,200
2016-08-05T12:52:40.015Z,210
2016-08-05T12:53:40.073Z,210
2016-08-05T12:54:40.077Z,215
2016-08-05T12:55:40.204Z,220
2016-08-05T12:56:40.073Z,230
2016-08-05T12:57:40.050Z,245
2016-08-05T12:58:40.116Z,265
2016-08-05T12:59:40.139Z,285
2016-08-05T13:00:40.117Z,295
2016-08-05T13:01:40.122Z,300
2016-08-05T13:02:40.073Z,305
2016-08-05T13:03:40.135Z,310
2016-08-05T13:04:40.147Z,315
2016-08-05T13:05:40.112Z,315
2016-08-05T13:06:40.194Z,335
2016-08-05T13:07:40.202Z,330
2016-08-05T13:08:40.145Z,335
2016-08-05T13:09:40.168Z,335
2016-08-05T13:10:40.100Z,335
2016-08-05T13:11:40.399Z,340
2016-08-05T13:12:40.039Z,340
2016-08-05T13:13:40.106Z,335
2016-08-05T13:14:40.103Z,325
2016-08-05T13:15:40.191Z,320
2016-08-05T13:16:40.130Z,315
2016-08-05T13:17:40.184Z,305
2016-08-05T13:18:40.210Z,295
2016-08-05T13:19:40.214Z,285
2016-08-05T13:20:40.098Z,275
2016-08-05T13:21:40.076Z,270
2016-08-05T13:22:40.070Z,270
2016-08-05T13:23:40.092Z,280
2016-08-05T13:24:40.123Z,300
2016-08-05T13:25:40.049Z,315
2016-08-05T13:26:40.135Z,330
2016-08-05T13:27:40.101Z,335
2016-08-05T13:28:40.211Z,340
2016-08-05T13:29:40.112Z,355
2016-08-05T13:30:40.106Z,365
2016-08-05T13:31:40.048Z,375
2016-08-05T13:32:40.098Z,395
2016-08-05T13:33:40.221Z,410
2016-08-05T13:34:40.135Z,430
2016-08-05T13:35:40.131Z,460
2016-08-05T13:36:40.125Z,475
2016-08-05T13:37:40.056Z,475
2016-08-05T13:38:40.189Z,460
2016-08-05T13:39:40.113Z,445
2016-08-05T13:40:40.143Z,440
2016-08-05T13:41:40.162Z,430
2016-08-05T13:42:40.108Z,400
2016-08-05T13:43:40.423Z,365
2016-08-05T13:44:40.178Z,335
2016-08-05T13:45:40.245Z,325
2016-08-05T13:46:40.159Z,315
2016-08-05T13:47:40.191Z,325
2016-08-05T13:48:40.252Z,335
2016-08-05T13:49:40.178Z,345
2016-08-05T13:50:40.736Z,330
2016-08-05T13:51:40.121Z,305
2016-08-05T13:52:40.706Z,280
2016-08-05T13:53:41.312Z,265
2016-08-05T13:54:40.115Z,255
2016-08-05T13:55:40.140Z,260
2016-08-05T13:56:40.136Z,270
2016-08-05T13:57:40.072Z,295
2016-08-05T13:58:40.252Z,320
2016-08-05T13:59:40.311Z,325
2016-08-05T14:00:40.184Z,335
2016-08-05T14:01:40.137Z,330
2016-08-05T14:02:40.222Z,320
2016-08-05T14:03:40.229Z,305
2016-08-05T14:04:40.144Z,275
2016-08-05T14:05:40.191Z,255
2016-08-05T14:06:40.493Z,245
2016-08-05T14:07:40.554Z,245
2016-08-05T14:08:41.039Z,235
2016-08-05T14:09:40.206Z,220
2016-08-05T14:10:40.802Z,195
2016-08-05T14:11:40.536Z,185
2016-08-05T14:12:40.134Z,185
2016-08-05T14:13:41.223Z,195
2016-08-05T14:14:40.417Z,200
2016-08-05T14:15:40.744Z,195